Time;durP1;ratioP1;P1;durP2;ratioP2;P2;SDS_P1;SDS_P2;PMS_P1;PMS_P2;Temp;Humidity;BMP_temperature;BMP_pressure;BME280_temperature;BME280_humidity;BME280_pressure;Samples;Min_cycle;Max_cycle;Signal;HPM_P1;HPM_P2
2022/07/23 00:01:19;;;;;;;8.52;6.03;;;17.20;99.90;;;;;;5077578;28;20424;-62
2022/07/23 00:03:45;;;;;;;7.72;5.93;;;17.20;99.90;;;;;;5077531;28;20415;-63
2022/07/23 00:06:11;;;;;;;7.47;6.40;;;17.20;99.90;;;;;;5077461;28;20107;-63
2022/07/23 00:08:37;;;;;;;8.23;5.88;;;17.10;99.90;;;;;;5077818;28;20064;-62
2022/07/23 00:11:03;;;;;;;8.77;5.82;;;17.20;99.90;;;;;;5077389;28;20059;-63
2022/07/23 00:13:29;;;;;;;7.47;6.03;;;17.10;99.90;;;;;;5076821;28;20029;-62
2022/07/23 00:15:55;;;;;;;8.38;5.88;;;17.10;99.90;;;;;;5077422;28;20130;-62
2022/07/23 00:18:21;;;;;;;7.53;5.93;;;17.10;99.90;;;;;;5077394;28;20033;-62
2022/07/23 00:20:47;;;;;;;7.32;5.57;;;17.10;99.90;;;;;;5076777;28;20297;-62
2022/07/23 00:23:13;;;;;;;6.97;6.07;;;16.90;99.90;;;;;;5077258;28;20067;-63
2022/07/23 00:25:38;;;;;;;6.55;5.53;;;16.90;99.90;;;;;;5077246;28;20024;-62
2022/07/23 00:28:07;;;;;;;7.00;5.85;;;16.90;99.90;;;;;;5077172;28;20028;-61
2022/07/23 00:30:33;;;;;;;7.40;6.03;;;16.90;99.90;;;;;;5077098;28;20123;-62
2022/07/23 00:33:02;;;;;;;6.43;5.82;;;16.80;99.90;;;;;;5059717;28;20461;-62
2022/07/23 00:35:31;;;;;;;8.07;6.03;;;16.80;99.90;;;;;;5077108;28;20115;-62
2022/07/23 00:37:58;;;;;;;8.32;5.70;;;16.80;99.90;;;;;;5077096;28;20074;-63
2022/07/23 00:40:25;;;;;;;8.82;6.25;;;16.80;99.90;;;;;;5077508;28;20056;-63
2022/07/23 00:42:51;;;;;;;7.35;6.25;;;16.80;99.90;;;;;;5059714;28;20032;-62
2022/07/23 00:45:18;;;;;;;9.18;6.70;;;16.90;99.90;;;;;;5076956;28;20090;-62
2022/07/23 00:47:43;;;;;;;7.10;6.28;;;16.90;99.90;;;;;;5059569;28;20024;-63
2022/07/23 00:50:10;;;;;;;8.43;6.30;;;16.90;99.90;;;;;;5076951;28;20032;-62
2022/07/23 00:52:38;;;;;;;7.07;6.05;;;16.80;99.90;;;;;;5076965;28;20060;-62
2022/07/23 00:55:06;;;;;;;6.40;5.80;;;16.70;99.90;;;;;;5043116;28;20028;-62
2022/07/23 00:57:33;;;;;;;7.68;6.25;;;16.70;99.90;;;;;;5076042;28;20083;-62
2022/07/23 00:59:59;;;;;;;6.65;6.05;;;16.70;99.90;;;;;;5077072;28;20045;-62
2022/07/23 01:02:26;;;;;;;7.63;6.85;;;16.80;99.90;;;;;;5076214;28;20036;-63
2022/07/23 01:04:53;;;;;;;7.30;6.53;;;16.80;99.90;;;;;;5076034;28;20043;-64
2022/07/23 01:07:20;;;;;;;9.25;6.00;;;16.70;99.90;;;;;;5059544;28;20085;-63
2022/07/23 01:09:46;;;;;;;6.45;5.85;;;16.70;99.90;;;;;;5076897;28;20036;-62
2022/07/23 01:12:12;;;;;;;7.90;6.40;;;16.60;99.90;;;;;;5059302;28;20141;-63
2022/07/23 01:14:38;;;;;;;7.85;6.32;;;16.60;99.90;;;;;;5076688;28;20049;-63
2022/07/23 01:17:04;;;;;;;9.38;6.10;;;16.50;99.90;;;;;;5075938;28;20103;-63
2022/07/23 01:19:30;;;;;;;8.75;6.70;;;16.50;99.90;;;;;;5076630;28;20044;-63
2022/07/23 01:22:00;;;;;;;6.90;6.20;;;16.50;99.90;;;;;;5075850;28;20039;-62
2022/07/23 01:24:26;;;;;;;7.30;6.35;;;16.40;99.90;;;;;;5075716;28;20025;-63
2022/07/23 01:27:05;;;;;;;7.15;6.43;;;16.40;99.90;;;;;;5075804;28;20029;-62
2022/07/23 01:29:32;;;;;;;8.43;7.05;;;16.40;99.90;;;;;;5076026;28;20032;-63
2022/07/23 01:32:02;;;;;;;7.45;6.75;;;16.40;99.90;;;;;;5077412;28;20319;-61
2022/07/23 01:34:27;;;;;;;8.52;6.70;;;16.50;99.90;;;;;;5080434;28;20111;-62
2022/07/23 01:36:53;;;;;;;9.23;6.97;;;16.40;99.90;;;;;;5079579;28;20063;-62
2022/07/23 01:39:19;;;;;;;8.98;6.97;;;16.40;99.90;;;;;;5080589;28;20024;-61
2022/07/23 01:41:46;;;;;;;7.55;6.75;;;16.30;99.90;;;;;;5079462;28;20403;-63
2022/07/23 01:44:12;;;;;;;8.73;7.20;;;16.30;99.90;;;;;;5062850;28;20032;-63
2022/07/23 01:46:39;;;;;;;11.50;7.60;;;16.40;99.90;;;;;;5079334;28;20036;-62
2022/07/23 01:49:06;;;;;;;8.68;7.18;;;16.50;99.90;;;;;;5062754;28;20351;-62
2022/07/23 01:52:10;;;;;;;9.60;7.43;;;16.60;99.90;;;;;;5080055;28;20319;-62
2022/07/23 01:54:40;;;;;;;11.18;7.13;;;16.40;99.90;;;;;;5079295;28;20090;-62
2022/07/23 01:57:08;;;;;;;7.30;6.53;;;16.30;99.90;;;;;;5079051;28;20476;-62
2022/07/23 01:59:34;;;;;;;10.73;7.63;;;16.30;99.90;;;;;;5079437;28;20024;-63
2022/07/23 02:02:01;;;;;;;10.25;7.55;;;16.30;99.90;;;;;;5079169;28;20039;-63
2022/07/23 02:04:28;;;;;;;7.97;7.18;;;16.20;99.90;;;;;;5079805;28;20036;-61
2022/07/23 02:06:54;;;;;;;6.97;6.28;;;16.20;99.90;;;;;;5079011;28;20086;-61
2022/07/23 02:09:20;;;;;;;10.00;6.90;;;16.20;99.90;;;;;;5079752;28;20056;-62
2022/07/23 02:11:46;;;;;;;10.23;7.63;;;16.20;99.90;;;;;;5080122;28;20305;-62
2022/07/23 02:14:12;;;;;;;8.55;7.03;;;16.20;99.90;;;;;;5079665;28;20024;-61
2022/07/23 02:16:38;;;;;;;8.88;7.75;;;16.30;99.90;;;;;;5079583;28;20035;-61
2022/07/23 02:19:04;;;;;;;9.07;7.50;;;16.20;99.90;;;;;;5078934;28;20408;-62
2022/07/23 02:21:30;;;;;;;9.13;6.88;;;16.10;99.90;;;;;;5079784;28;20036;-61
2022/07/23 02:23:56;;;;;;;10.40;7.00;;;16.10;99.90;;;;;;5078677;28;20033;-61
2022/07/23 02:26:21;;;;;;;8.10;6.85;;;16.10;99.90;;;;;;5079357;28;20055;-61
2022/07/23 02:28:50;;;;;;;10.25;7.40;;;16.10;99.90;;;;;;5078678;28;20085;-61
2022/07/23 02:31:16;;;;;;;9.50;7.55;;;16.10;99.90;;;;;;5078529;28;20037;-61
2022/07/23 02:33:42;;;;;;;10.65;7.18;;;16.10;99.90;;;;;;5078476;28;20142;-61
2022/07/23 02:36:08;;;;;;;7.95;6.70;;;16.00;99.90;;;;;;5078408;28;20039;-61
2022/07/23 02:38:34;;;;;;;8.88;6.80;;;16.00;99.90;;;;;;5079171;28;20040;-62
2022/07/23 02:41:00;;;;;;;8.20;7.22;;;16.00;99.90;;;;;;5061808;28;20117;-61
2022/07/23 02:43:26;;;;;;;8.50;7.35;;;15.90;99.90;;;;;;5061337;28;20032;-61
2022/07/23 02:45:52;;;;;;;7.97;7.22;;;15.90;99.90;;;;;;5061582;28;20048;-62
2022/07/23 02:48:18;;;;;;;9.68;7.78;;;15.90;99.90;;;;;;5078298;28;20281;-61
2022/07/23 02:50:46;;;;;;;8.57;7.07;;;15.90;99.90;;;;;;5078116;28;20036;-62
2022/07/23 02:53:15;;;;;;;9.52;7.68;;;15.80;99.90;;;;;;5078234;28;20308;-62
2022/07/23 02:55:42;;;;;;;8.93;7.07;;;15.90;99.90;;;;;;5077971;28;20028;-62
2022/07/23 02:58:08;;;;;;;10.25;7.63;;;15.80;99.90;;;;;;5079187;28;20046;-62
2022/07/23 03:00:33;;;;;;;9.60;7.65;;;15.80;99.90;;;;;;5078087;28;20033;-62
2022/07/23 03:02:59;;;;;;;10.05;7.55;;;15.80;99.90;;;;;;5077997;28;20032;-62
2022/07/23 03:05:25;;;;;;;12.25;8.00;;;15.90;99.90;;;;;;5077927;28;20047;-63
2022/07/23 03:07:51;;;;;;;9.13;7.90;;;15.90;99.90;;;;;;5078703;28;20041;-62
2022/07/23 03:10:17;;;;;;;10.57;7.65;;;15.90;99.90;;;;;;5077767;28;20412;-63
2022/07/23 03:12:44;;;;;;;11.70;7.80;;;15.80;99.90;;;;;;5077828;28;20028;-63
2022/07/23 03:15:09;;;;;;;10.50;8.10;;;15.80;99.90;;;;;;5077817;28;20379;-62
2022/07/23 03:17:35;;;;;;;8.93;7.78;;;15.80;99.90;;;;;;5077688;28;20028;-62
2022/07/23 03:20:02;;;;;;;8.98;7.93;;;15.80;99.90;;;;;;5077682;28;20421;-62
2022/07/23 03:22:28;;;;;;;7.95;7.15;;;15.90;99.90;;;;;;5077608;28;20093;-62
2022/07/23 03:24:54;;;;;;;9.55;7.60;;;15.70;99.90;;;;;;5077719;28;20319;-62
2022/07/23 03:27:28;;;;;;;7.65;6.95;;;15.70;99.90;;;;;;5077493;28;20043;-62
2022/07/23 03:29:56;;;;;;;9.40;8.13;;;15.70;99.90;;;;;;5077379;28;20347;-62
2022/07/23 03:32:22;;;;;;;13.68;8.30;;;15.70;99.90;;;;;;5078130;28;20109;-63
2022/07/23 03:34:50;;;;;;;8.60;7.75;;;15.80;99.90;;;;;;5077357;28;20086;-62
2022/07/23 03:37:17;;;;;;;10.52;7.82;;;15.70;99.90;;;;;;5078314;28;20025;-62
2022/07/23 03:39:43;;;;;;;7.63;6.78;;;15.60;99.90;;;;;;5077288;28;20399;-62
2022/07/23 03:42:09;;;;;;;8.02;7.28;;;15.60;99.90;;;;;;5077120;28;20036;-62
2022/07/23 03:44:36;;;;;;;7.97;7.18;;;15.50;99.90;;;;;;5077970;28;20407;-62
2022/07/23 03:47:03;;;;;;;9.98;7.90;;;15.50;99.90;;;;;;5077042;28;20033;-62
2022/07/23 03:49:29;;;;;;;7.95;7.05;;;15.50;99.90;;;;;;5077014;28;20043;-62
2022/07/23 03:51:55;;;;;;;10.40;7.75;;;15.60;99.90;;;;;;5076854;28;20331;-62
2022/07/23 03:54:21;;;;;;;8.75;7.57;;;15.70;99.90;;;;;;5076843;28;20021;-62
2022/07/23 03:56:46;;;;;;;11.90;7.72;;;15.70;99.90;;;;;;5076468;28;20052;-62
2022/07/23 03:59:12;;;;;;;12.63;7.40;;;15.70;99.90;;;;;;5077465;28;20032;-62
2022/07/23 04:01:38;;;;;;;10.98;7.40;;;15.60;99.90;;;;;;5076668;28;20033;-62
2022/07/23 04:04:04;;;;;;;8.82;7.68;;;15.60;99.90;;;;;;5077495;28;20082;-62
2022/07/23 04:06:32;;;;;;;10.57;7.43;;;15.50;99.90;;;;;;5077185;28;20064;-62
2022/07/23 04:08:59;;;;;;;10.20;7.95;;;15.50;99.90;;;;;;5076621;28;20037;-62
2022/07/23 04:11:24;;;;;;;8.15;7.35;;;15.60;99.90;;;;;;5076510;28;20036;-62
2022/07/23 04:13:50;;;;;;;9.45;7.40;;;15.70;99.90;;;;;;5077380;28;20300;-63
2022/07/23 04:16:16;;;;;;;8.90;7.30;;;15.60;99.90;;;;;;5076854;28;20090;-62
2022/07/23 04:18:42;;;;;;;9.35;7.88;;;15.60;99.90;;;;;;5076283;28;20308;-62
2022/07/23 04:21:14;;;;;;;8.18;7.28;;;15.60;99.90;;;;;;5076396;28;20392;-62
2022/07/23 04:23:40;;;;;;;9.32;7.60;;;15.60;99.90;;;;;;5076450;28;20060;-62
2022/07/23 04:26:06;;;;;;;9.32;7.75;;;15.60;99.90;;;;;;5076357;28;20033;-62
2022/07/23 04:28:32;;;;;;;8.43;7.50;;;15.50;99.90;;;;;;5076338;28;20033;-62
2022/07/23 04:30:58;;;;;;;8.82;7.82;;;15.50;99.90;;;;;;5076104;28;20032;-64
2022/07/23 04:33:24;;;;;;;7.85;7.05;;;15.60;99.90;;;;;;5076218;28;20119;-62
2022/07/23 04:35:53;;;;;;;9.20;7.78;;;15.60;99.90;;;;;;5076355;28;20040;-62
2022/07/23 04:38:20;;;;;;;11.07;8.30;;;15.60;99.90;;;;;;5076473;28;20029;-63
2022/07/23 04:40:48;;;;;;;10.13;7.93;;;15.60;99.90;;;;;;5059978;28;20047;-62
2022/07/23 04:43:14;;;;;;;10.00;8.27;;;15.60;99.90;;;;;;5076892;28;20116;-61
2022/07/23 04:45:48;;;;;;;9.73;8.07;;;15.60;99.90;;;;;;5076243;28;20319;-61
2022/07/23 04:48:14;;;;;;;13.10;8.13;;;15.70;99.90;;;;;;5076174;28;20039;-61
2022/07/23 04:50:40;;;;;;;10.15;8.05;;;15.80;99.90;;;;;;5076044;28;20040;-61
2022/07/23 04:53:14;;;;;;;9.27;8.38;;;16.00;99.90;;;;;;5076947;28;20107;-61
2022/07/23 04:55:40;;;;;;;9.38;7.97;;;16.00;99.90;;;;;;5076083;28;20036;-62
2022/07/23 04:58:06;;;;;;;9.05;8.13;;;16.10;99.90;;;;;;5076056;28;20025;-61
2022/07/23 05:00:32;;;;;;;9.40;7.75;;;16.10;99.90;;;;;;5076008;28;20048;-61
2022/07/23 05:02:58;;;;;;;11.73;8.05;;;16.10;99.90;;;;;;5076004;28;20296;-61
2022/07/23 05:05:24;;;;;;;8.30;7.60;;;16.00;99.90;;;;;;5076731;28;20123;-61
2022/07/23 05:07:51;;;;;;;8.80;7.90;;;16.10;99.90;;;;;;5080314;28;20028;-62
2022/07/23 05:10:17;;;;;;;9.13;8.02;;;16.10;99.90;;;;;;5079905;28;20043;-61
2022/07/23 05:12:43;;;;;;;11.05;7.80;;;16.00;99.90;;;;;;5080058;28;20024;-61
2022/07/23 05:15:09;;;;;;;9.10;7.90;;;16.00;99.90;;;;;;5080783;28;20090;-61
2022/07/23 05:17:34;;;;;;;8.80;7.90;;;16.10;99.90;;;;;;5063384;28;20296;-62
2022/07/23 05:20:04;;;;;;;9.10;7.90;;;16.10;99.90;;;;;;5079879;28;20127;-61
2022/07/23 05:22:29;;;;;;;9.80;7.65;;;16.20;99.90;;;;;;5079811;28;20114;-62
2022/07/23 05:24:55;;;;;;;7.90;7.15;;;16.30;99.90;;;;;;5079860;28;20416;-62
2022/07/23 05:27:21;;;;;;;8.55;7.40;;;16.40;99.90;;;;;;5079815;28;20040;-62
2022/07/23 05:29:47;;;;;;;8.45;7.50;;;16.50;99.90;;;;;;5079768;28;20123;-62
2022/07/23 05:32:13;;;;;;;8.07;7.10;;;16.40;99.90;;;;;;5079590;28;20433;-61
2022/07/23 05:34:45;;;;;;;8.20;7.38;;;16.50;99.90;;;;;;5079776;28;20071;-62
2022/07/23 05:37:11;;;;;;;9.68;7.82;;;16.70;99.90;;;;;;5080454;28;20032;-62
2022/07/23 05:39:37;;;;;;;9.45;7.38;;;16.80;99.90;;;;;;5079560;28;20032;-62
2022/07/23 05:42:03;;;;;;;8.20;7.40;;;17.00;99.90;;;;;;5079552;28;20033;-62
2022/07/23 05:44:29;;;;;;;8.23;7.38;;;17.10;99.90;;;;;;5062841;28;20037;-62
2022/07/23 05:46:55;;;;;;;8.55;7.35;;;17.10;99.90;;;;;;5080075;28;20043;-62
2022/07/23 05:49:24;;;;;;;8.15;7.03;;;17.20;99.90;;;;;;5079317;28;20036;-64
2022/07/23 05:52:09;;;;;;;9.15;7.50;;;17.20;99.90;;;;;;5080537;28;20141;-63
2022/07/23 05:55:00;;;;;;;8.40;7.30;;;17.30;99.90;;;;;;5079256;28;20048;-62
2022/07/23 05:57:26;;;;;;;10.05;7.75;;;17.30;99.90;;;;;;5062389;28;20055;-62
2022/07/23 05:59:52;;;;;;;12.85;7.47;;;17.20;99.90;;;;;;5079196;28;20300;-62
2022/07/23 06:02:18;;;;;;;8.63;7.78;;;17.10;99.90;;;;;;5079751;28;20025;-62
2022/07/23 06:04:44;;;;;;;7.60;6.50;;;17.30;99.90;;;;;;5079033;28;20323;-61
2022/07/23 06:07:24;;;;;;;7.72;6.90;;;17.40;99.90;;;;;;5064300;28;20037;-62
2022/07/23 06:09:50;;;;;;;7.93;6.70;;;17.40;99.90;;;;;;5078899;28;20039;-62
2022/07/23 06:12:17;;;;;;;9.13;6.38;;;17.50;99.90;;;;;;5078861;28;20033;-62
2022/07/23 06:14:43;;;;;;;7.20;6.50;;;17.50;99.90;;;;;;5078930;28;20075;-62
2022/07/23 06:17:09;;;;;;;8.43;6.53;;;17.60;99.90;;;;;;5079246;28;20440;-62
2022/07/23 06:19:35;;;;;;;6.88;6.28;;;17.80;99.90;;;;;;5078739;28;20420;-62
2022/07/23 06:22:02;;;;;;;6.75;5.80;;;17.60;99.90;;;;;;5079544;28;20044;-62
2022/07/23 06:24:28;;;;;;;8.57;6.35;;;17.70;99.90;;;;;;5078759;28;20325;-62
2022/07/23 06:26:54;;;;;;;8.43;6.45;;;17.80;99.90;;;;;;5078769;28;20029;-62
2022/07/23 06:29:20;;;;;;;6.97;6.20;;;18.00;99.90;;;;;;5078626;28;20040;-62
2022/07/23 06:31:45;;;;;;;8.63;6.90;;;18.10;99.90;;;;;;5078634;28;20500;-62
2022/07/23 06:34:13;;;;;;;7.15;6.13;;;18.20;99.90;;;;;;5078476;28;20040;-61
2022/07/23 06:36:39;;;;;;;8.18;6.35;;;18.30;99.90;;;;;;5079934;28;20381;-61
2022/07/23 06:39:05;;;;;;;7.63;5.75;;;18.30;99.90;;;;;;5079199;28;20119;-62
2022/07/23 06:41:31;;;;;;;6.57;5.97;;;18.30;99.90;;;;;;5078578;28;20028;-61
2022/07/23 06:43:57;;;;;;;6.88;5.30;;;18.40;99.90;;;;;;5079318;28;20063;-61
2022/07/23 06:46:23;;;;;;;6.50;5.55;;;18.50;99.90;;;;;;5078330;28;20129;-61
2022/07/23 06:48:49;;;;;;;5.93;5.18;;;18.60;99.90;;;;;;5078296;28;20120;-61
2022/07/23 06:51:15;;;;;;;5.90;5.30;;;18.70;99.90;;;;;;5079002;28;20179;-61
2022/07/23 06:53:41;;;;;;;6.90;5.30;;;18.70;99.90;;;;;;5078907;28;20090;-62
2022/07/23 06:56:08;;;;;;;5.50;4.85;;;18.70;99.90;;;;;;5078131;28;20052;-62
2022/07/23 06:58:34;;;;;;;5.50;5.00;;;18.90;99.90;;;;;;5078493;28;20031;-62
2022/07/23 07:01:00;;;;;;;6.93;5.40;;;18.90;99.90;;;;;;5078111;28;20085;-62
2022/07/23 07:03:26;;;;;;;4.82;4.43;;;19.00;99.90;;;;;;5061258;28;20043;-62
2022/07/23 07:05:52;;;;;;;6.03;5.40;;;19.10;99.90;;;;;;5078720;28;20037;-62
2022/07/23 07:08:19;;;;;;;5.88;5.20;;;19.30;99.90;;;;;;5079026;28;20044;-63
2022/07/23 07:10:44;;;;;;;5.40;4.90;;;19.30;99.90;;;;;;5078556;28;20085;-63
2022/07/23 07:13:10;;;;;;;9.32;5.18;;;19.20;99.90;;;;;;5078562;28;20036;-62
2022/07/23 07:15:36;;;;;;;7.35;5.65;;;19.00;99.90;;;;;;5078481;28;20085;-61
2022/07/23 07:18:02;;;;;;;6.22;5.40;;;18.70;99.90;;;;;;5078807;28;20029;-61
2022/07/23 07:20:28;;;;;;;7.28;5.82;;;18.60;99.90;;;;;;5077855;28;20037;-61
2022/07/23 07:22:53;;;;;;;7.30;5.55;;;18.80;99.90;;;;;;5078793;28;20052;-62
2022/07/23 07:25:19;;;;;;;7.18;5.32;;;18.80;99.90;;;;;;5078900;28;20028;-62
2022/07/23 07:27:45;;;;;;;11.82;4.85;;;18.80;99.90;;;;;;5078804;28;20072;-62
2022/07/23 07:30:12;;;;;;;5.32;4.60;;;19.00;99.90;;;;;;5077535;28;20075;-61
2022/07/23 07:32:38;;;;;;;4.50;4.10;;;19.10;99.90;;;;;;5078116;28;20329;-62
2022/07/23 07:35:05;;;;;;;5.97;5.00;;;19.30;99.90;;;;;;5078171;28;20401;-62
2022/07/23 07:37:30;;;;;;;6.85;5.10;;;19.40;99.90;;;;;;5078096;28;20035;-62
2022/07/23 07:39:56;;;;;;;5.70;5.20;;;19.50;99.90;;;;;;5078109;28;20024;-62
2022/07/23 07:42:22;;;;;;;6.07;4.80;;;19.40;99.90;;;;;;5077977;28;20036;-62
2022/07/23 07:44:48;;;;;;;7.28;4.72;;;19.30;99.90;;;;;;5077914;28;20033;-62
2022/07/23 07:47:15;;;;;;;6.60;5.07;;;19.40;99.90;;;;;;5077903;28;20036;-61
2022/07/23 07:49:43;;;;;;;5.05;4.65;;;19.40;99.90;;;;;;5077792;28;20040;-62
2022/07/23 07:52:10;;;;;;;5.75;5.00;;;19.50;99.90;;;;;;5077747;28;20123;-63
2022/07/23 07:54:36;;;;;;;6.13;4.97;;;19.60;99.90;;;;;;5077746;28;20086;-62
2022/07/23 07:57:02;;;;;;;6.07;4.57;;;19.70;99.90;;;;;;5077579;28;20405;-62
2022/07/23 07:59:28;;;;;;;7.45;5.07;;;19.90;99.90;;;;;;5077068;28;20354;-62
2022/07/23 08:01:54;;;;;;;7.22;4.85;;;19.80;99.90;;;;;;5076942;28;20036;-62
2022/07/23 08:04:20;;;;;;;7.05;4.38;;;19.80;99.90;;;;;;5076809;28;20054;-62
2022/07/23 08:06:46;;;;;;;7.53;5.18;;;20.00;99.90;;;;;;5077462;28;20036;-61
2022/07/23 08:09:12;;;;;;;5.07;4.57;;;20.10;99.90;;;;;;5077621;28;20516;-62
2022/07/23 08:11:37;;;;;;;7.07;5.43;;;20.30;99.90;;;;;;5077339;28;20059;-63
2022/07/23 08:14:03;;;;;;;6.43;4.53;;;20.10;99.90;;;;;;5076965;28;20119;-62
2022/07/23 08:16:29;;;;;;;5.25;4.57;;;20.30;99.90;;;;;;5077272;28;20036;-62
2022/07/23 08:18:55;;;;;;;6.10;4.70;;;20.30;99.90;;;;;;5076680;28;20150;-62
2022/07/23 08:21:21;;;;;;;10.10;5.25;;;20.40;99.90;;;;;;5077662;28;20037;-62
2022/07/23 08:23:46;;;;;;;10.23;4.70;;;20.20;99.90;;;;;;5077585;28;20032;-63
2022/07/23 08:26:12;;;;;;;6.90;5.13;;;20.10;99.90;;;;;;5077156;28;20043;-64
2022/07/23 08:28:38;;;;;;;6.65;5.03;;;20.20;99.90;;;;;;5076497;28;20032;-61
2022/07/23 08:31:05;;;;;;;8.63;5.07;;;20.30;99.90;;;;;;5077109;28;20062;-63
2022/07/23 08:33:31;;;;;;;7.38;5.65;;;20.40;99.90;;;;;;5077182;28;20040;-64
2022/07/23 08:35:58;;;;;;;6.57;4.30;;;20.20;99.90;;;;;;5077112;28;20119;-62
2022/07/23 08:38:25;;;;;;;6.22;5.35;;;20.10;99.90;;;;;;5077090;28;20025;-64
2022/07/23 08:40:53;;;;;;;7.10;5.20;;;20.20;99.90;;;;;;5059216;28;20281;-61
2022/07/23 08:43:25;;;;;;;6.55;5.00;;;20.10;99.90;;;;;;5077002;28;20309;-62
2022/07/23 08:45:56;;;;;;;6.40;5.00;;;20.30;99.90;;;;;;5077080;28;20039;-61
2022/07/23 08:48:24;;;;;;;4.32;3.70;;;20.50;99.90;;;;;;5076987;28;20036;-61
2022/07/23 08:50:56;;;;;;;4.30;3.70;;;20.80;99.90;;;;;;5076919;28;20346;-62
2022/07/23 08:53:23;;;;;;;6.23;4.07;;;21.00;99.90;;;;;;5076894;28;20095;-61
2022/07/23 08:55:52;;;;;;;4.70;3.40;;;21.50;99.90;;;;;;5076551;28;20043;-62
2022/07/23 08:58:18;;;;;;;5.03;2.63;;;21.80;99.90;;;;;;5076893;28;20035;-62
2022/07/23 09:00:46;;;;;;;4.70;2.92;;;21.80;99.90;;;;;;5076195;28;20102;-62
2022/07/23 09:03:20;;;;;;;6.78;2.75;;;21.70;99.90;;;;;;5076722;28;20040;-61
2022/07/23 09:05:47;;;;;;;5.45;2.67;;;21.50;99.90;;;;;;5076848;28;20379;-62
2022/07/23 09:08:16;;;;;;;2.40;2.20;;;21.50;99.90;;;;;;5076683;28;20028;-63
2022/07/23 09:10:59;;;;;;;2.88;2.40;;;21.80;99.90;;;;;;5075846;28;20411;-60
2022/07/23 09:13:36;;;;;;;2.67;2.13;;;21.90;99.90;;;;;;5076613;28;20040;-63
2022/07/23 09:16:11;;;;;;;3.95;1.67;;;22.10;99.90;;;;;;5076715;28;20079;-62
2022/07/23 09:18:49;;;;;;;4.22;2.85;;;22.20;99.90;;;;;;5076581;28;20300;-62
2022/07/23 09:21:21;;;;;;;4.20;2.05;;;22.50;99.90;;;;;;5077237;28;20344;-61
2022/07/23 09:23:47;;;;;;;;;;;22.50;99.90;;;;;;5077364;28;20047;-63
2022/07/23 09:26:36;;;;;;;2.55;2.00;;;22.50;99.90;;;;;;5077139;28;19905;-62
2022/07/23 09:29:10;;;;;;;3.72;2.60;;;22.70;99.90;;;;;;5076534;28;20033;-59
2022/07/23 09:31:43;;;;;;;7.43;3.65;;;22.70;99.90;;;;;;5076546;28;20099;-60
2022/07/23 09:34:15;;;;;;;4.15;3.22;;;22.60;99.90;;;;;;5076431;28;20037;-60
2022/07/23 09:36:41;;;;;;;4.55;2.70;;;22.20;99.90;;;;;;5076598;28;20041;-61
2022/07/23 09:39:08;;;;;;;5.10;4.05;;;21.90;99.90;;;;;;5076488;28;20049;-65
2022/07/23 09:41:44;;;;;;;4.30;3.17;;;21.90;99.90;;;;;;5076400;28;20025;-63
2022/07/23 09:44:16;;;;;;;3.92;3.63;;;21.80;99.90;;;;;;5076395;28;20032;-60
2022/07/23 09:46:43;;;;;;;3.97;3.03;;;21.60;99.90;;;;;;5076989;28;20044;-61
2022/07/23 09:49:27;;;;;;;3.90;3.05;;;21.90;99.90;;;;;;5076334;28;20182;-59
2022/07/23 09:51:55;;;;;;;3.70;3.20;;;22.40;99.90;;;;;;5075596;28;20063;-60
2022/07/23 09:54:34;;;;;;;6.13;3.60;;;22.70;99.90;;;;;;5079966;28;20071;-61
2022/07/23 09:57:07;;;;;;;3.97;2.97;;;23.40;99.90;;;;;;5079973;28;20514;-60
2022/07/23 09:59:37;;;;;;;4.53;2.83;;;23.60;99.90;;;;;;5079968;28;20081;-65
2022/07/23 10:02:05;;;;;;;3.17;2.88;;;23.40;99.90;;;;;;5080010;28;20104;-60
2022/07/23 10:04:39;;;;;;;4.35;2.20;;;23.00;99.90;;;;;;5079213;28;20041;-61
2022/07/23 10:07:17;;;;;;;4.28;2.40;;;23.20;99.90;;;;;;5079175;28;20175;-61
2022/07/23 10:10:25;;;;;;;4.07;2.63;;;23.30;99.90;;;;;;5078431;28;20415;-62
2022/07/23 10:15:43;;;;;;;2.90;2.40;;;23.60;99.90;;;;;;5079382;28;20063;-62
2022/07/23 10:18:12;;;;;;;4.78;2.33;;;23.70;99.90;;;;;;5080177;28;20470;-60
2022/07/23 10:20:40;;;;;;;3.22;1.90;;;23.80;99.90;;;;;;5079548;28;20066;-61
2022/07/23 10:23:50;;;;;;;3.33;2.40;;;24.00;99.90;;;;;;5079718;28;20036;-64
2022/07/23 10:26:31;;;;;;;4.05;2.20;;;23.70;99.90;;;;;;5079372;28;20040;-61
2022/07/23 10:29:13;;;;;;;3.03;2.03;;;23.20;99.90;;;;;;5079454;28;20028;-61
2022/07/23 10:31:49;;;;;;;2.92;1.50;;;23.40;99.90;;;;;;5079963;28;20033;-61
2022/07/23 10:34:31;;;;;;;2.97;1.83;;;24.00;99.90;;;;;;5079381;28;20029;-62
2022/07/23 10:37:08;;;;;;;2.80;1.88;;;24.60;99.90;;;;;;5079984;28;20032;-62
2022/07/23 10:39:35;;;;;;;2.85;1.80;;;24.90;99.90;;;;;;5078650;28;20043;-62
2022/07/23 10:42:16;;;;;;;2.70;1.73;;;25.10;99.90;;;;;;5079303;28;20036;-61
2022/07/23 10:44:44;;;;;;;3.08;1.60;;;25.40;99.90;;;;;;5079229;28;20036;-62
2022/07/23 10:50:21;;;;;;;2.65;1.52;;;24.80;99.90;;;;;;5079126;28;20357;-63
2022/07/23 10:53:08;;;;;;;3.08;1.50;;;24.00;99.90;;;;;;5079516;28;20086;-61
2022/07/23 10:55:34;;;;;;;4.00;1.40;;;24.10;99.90;;;;;;5078777;28;20032;-60
2022/07/23 10:58:01;;;;;;;2.88;1.40;;;24.50;99.90;;;;;;5079181;28;20039;-62
2022/07/23 11:00:29;;;;;;;3.17;1.58;;;24.70;99.90;;;;;;5078884;28;20029;-60
2022/07/23 11:03:00;;;;;;;2.03;1.35;;;25.20;99.90;;;;;;5078540;28;20020;-61
2022/07/23 11:05:38;;;;;;;1.60;1.05;;;25.40;99.90;;;;;;5078867;28;20029;-60
2022/07/23 11:08:04;;;;;;;2.28;0.80;;;25.30;99.90;;;;;;5079095;28;20438;-62
2022/07/23 11:10:38;;;;;;;1.30;0.82;;;26.40;99.90;;;;;;5078814;28;20040;-63
2022/07/23 11:13:26;;;;;;;1.33;0.70;;;27.70;99.90;;;;;;5079049;28;20043;-61
2022/07/23 11:16:01;;;;;;;1.15;0.77;;;30.00;99.90;;;;;;5077911;28;20032;-62
2022/07/23 11:18:42;;;;;;;1.83;0.80;;;29.70;99.90;;;;;;5078525;28;20126;-63
2022/07/23 11:21:23;;;;;;;2.58;0.90;;;31.40;98.90;;;;;;5078518;28;20032;-61
2022/07/23 11:24:06;;;;;;;1.30;0.77;;;31.20;93.80;;;;;;5078332;28;20035;-61
2022/07/23 11:26:39;;;;;;;1.25;0.80;;;31.60;92.50;;;;;;5078845;28;20036;-61
2022/07/23 11:29:35;;;;;;;1.30;1.00;;;32.10;87.00;;;;;;5078243;28;20075;-62
2022/07/23 11:32:23;;;;;;;2.17;0.77;;;32.50;88.40;;;;;;5078742;28;20055;-62
2022/07/23 11:34:51;;;;;;;1.00;0.70;;;33.40;82.90;;;;;;5078230;28;20320;-62
2022/07/23 11:37:39;;;;;;;0.93;0.70;;;32.30;84.10;;;;;;5078087;28;20040;-61
2022/07/23 11:40:11;;;;;;;0.63;0.60;;;33.50;79.00;;;;;;5078117;28;20032;-62
2022/07/23 11:42:52;;;;;;;2.13;1.00;;;35.20;77.80;;;;;;5078163;28;20178;-61
2022/07/23 11:45:18;;;;;;;0.82;0.80;;;34.20;71.60;;;;;;5077965;28;20040;-62
2022/07/23 11:47:43;;;;;;;1.95;1.00;;;34.30;75.20;;;;;;5077906;28;20404;-61
2022/07/23 11:50:09;;;;;;;1.80;0.80;;;34.80;70.50;;;;;;5078038;28;20126;-62
2022/07/23 11:52:35;;;;;;;0.80;0.80;;;35.00;69.80;;;;;;5077796;28;20036;-62
2022/07/23 11:55:07;;;;;;;1.02;0.70;;;36.50;65.30;;;;;;5077825;28;20033;-61
2022/07/23 11:57:36;;;;;;;1.02;0.90;;;36.30;65.70;;;;;;5077672;28;20048;-60
2022/07/23 12:00:10;;;;;;;3.22;0.80;;;35.60;61.90;;;;;;5077593;28;20040;-61
2022/07/23 12:02:42;;;;;;;1.10;0.77;;;35.80;63.10;;;;;;5078286;28;20028;-60
2022/07/23 12:05:11;;;;;;;1.48;0.80;;;35.60;62.70;;;;;;5076827;28;20107;-61
2022/07/23 12:07:40;;;;;;;1.63;0.80;;;35.80;61.80;;;;;;5076825;28;20024;-60
2022/07/23 12:10:13;;;;;;;2.00;1.02;;;35.00;62.60;;;;;;5077467;28;20051;-61
2022/07/23 12:12:49;;;;;;;1.35;0.90;;;35.30;63.20;;;;;;5076718;28;20032;-61
2022/07/23 12:15:18;;;;;;;1.73;1.02;;;33.80;64.90;;;;;;5076804;28;20029;-61
2022/07/23 12:17:46;;;;;;;1.85;1.08;;;33.50;66.00;;;;;;5077250;28;20016;-61
2022/07/23 12:20:15;;;;;;;1.02;0.80;;;34.80;63.60;;;;;;5077346;28;20059;-62
2022/07/23 12:22:47;;;;;;;1.45;1.00;;;36.20;60.30;;;;;;5077703;28;20039;-62
2022/07/23 12:25:19;;;;;;;0.90;0.80;;;36.60;57.60;;;;;;5077237;28;20020;-62
2022/07/23 12:27:45;;;;;;;1.33;0.95;;;36.80;57.90;;;;;;5077270;28;20043;-62
2022/07/23 12:30:46;;;;;;;1.95;1.00;;;37.40;57.40;;;;;;5077240;28;20366;-66
2022/07/23 12:33:20;;;;;;;1.60;0.73;;;35.40;57.50;;;;;;5075871;28;20032;-61
2022/07/23 12:35:48;;;;;;;1.25;1.15;;;37.00;57.60;;;;;;5077241;28;20087;-63
2022/07/23 12:38:19;;;;;;;2.58;1.10;;;36.80;54.50;;;;;;5076411;28;20037;-66
2022/07/23 12:40:50;;;;;;;;;;;35.30;57.20;;;;;;5077551;28;20052;-62
2022/07/23 12:43:23;;;;;;;0.98;0.80;;;35.10;57.80;;;;;;5077525;28;19908;-63
2022/07/23 12:45:51;;;;;;;1.30;1.00;;;36.00;56.50;;;;;;5077122;28;20043;-62
2022/07/23 12:48:28;;;;;;;1.45;1.10;;;35.90;56.20;;;;;;5077035;28;20021;-66
2022/07/23 12:50:59;;;;;;;1.90;1.00;;;33.80;57.10;;;;;;5077536;28;20037;-63
2022/07/23 12:53:36;;;;;;;1.30;1.10;;;34.20;59.20;;;;;;5077038;28;20040;-64
2022/07/23 12:56:11;;;;;;;1.42;1.13;;;33.20;59.90;;;;;;5076789;28;20102;-62
2022/07/23 12:58:46;;;;;;;1.90;0.98;;;35.10;57.90;;;;;;5077326;28;20062;-62
2022/07/23 13:01:21;;;;;;;2.20;1.00;;;36.80;56.20;;;;;;5077199;28;20393;-63